Time,TemperatureF,DewpointF,PressureIn,WindDirection,WindDirectionDegrees,WindSpeedMPH,WindSpeedGustMPH,Humidity,HourlyPrecipIn,Conditions,Clouds,dailyrainin,SoftwareType,DateUTC
2013-05-23 00:12:00,52.2,51.7,29.85,West,270,1.1,-999.0,98,-99.99,,,0.00,Acu-Link.com,2013-05-23 04:12:00,
2013-05-23 00:27:00,52.0,51.5,29.85,ENE,67,1.7,-999.0,98,-99.99,,,0.00,Acu-Link.com,2013-05-23 04:27:00,
2013-05-23 00:42:00,52.2,51.7,29.85,ESE,112,1.7,-999.0,98,-99.99,,,0.00,Acu-Link.com,2013-05-23 04:42:00,
2013-05-23 00:58:00,52.0,51.5,29.85,NNE,22,0.0,-999.0,98,-99.99,,,0.00,Acu-Link.com,2013-05-23 04:58:00,
2013-05-23 01:13:00,52.0,51.5,29.85,NNE,22,0.0,-999.0,98,-99.99,,,0.00,Acu-Link.com,2013-05-23 05:13:00,
2013-05-23 01:28:00,52.0,51.5,29.84,NNE,22,2.2,-999.0,98,-99.99,,,0.00,Acu-Link.com,2013-05-23 05:28:00,
2013-05-23 01:44:00,51.8,51.3,29.85,East,90,1.1,-999.0,98,-99.99,,,0.00,Acu-Link.com,2013-05-23 05:44:00,
2013-05-23 01:59:00,51.6,51.1,29.83,SSE,157,0.0,-999.0,98,-99.99,,,0.00,Acu-Link.com,2013-05-23 05:59:00,
2013-05-23 02:14:00,51.6,51.1,29.81,South,180,0.0,-999.0,98,-99.99,,,0.00,Acu-Link.com,2013-05-23 06:14:00,
2013-05-23 02:30:00,51.8,51.3,29.80,ESE,112,0.0,-999.0,98,-99.99,,,0.00,Acu-Link.com,2013-05-23 06:30:00,
2013-05-23 02:45:00,51.8,51.3,29.81,East,90,0.0,-999.0,98,-99.99,,,0.00,Acu-Link.com,2013-05-23 06:45:00,
2013-05-23 03:00:00,51.8,51.3,29.81,SW,225,0.0,-999.0,98,-99.99,,,0.00,Acu-Link.com,2013-05-23 07:00:00,
2013-05-23 03:16:00,52.0,51.5,29.80,West,270,0.0,-999.0,98,-99.99,,,0.00,Acu-Link.com,2013-05-23 07:16:00,
2013-05-23 03:31:00,52.0,51.5,29.80,South,180,0.0,-999.0,98,-99.99,,,0.00,Acu-Link.com,2013-05-23 07:31:00,
2013-05-23 03:46:00,52.0,51.5,29.80,SW,225,0.0,-999.0,98,-99.99,,,0.00,Acu-Link.com,2013-05-23 07:46:00,
2013-05-23 04:02:00,52.2,51.7,29.80,WSW,247,1.1,-999.0,98,-99.99,,,0.00,Acu-Link.com,2013-05-23 08:02:00,
2013-05-23 04:17:00,52.2,51.7,29.80,SSE,157,2.2,-999.0,98,-99.99,,,0.00,Acu-Link.com,2013-05-23 08:17:00,
2013-05-23 04:32:00,52.2,51.7,29.81,SE,135,1.1,-999.0,98,-99.99,,,0.00,Acu-Link.com,2013-05-23 08:32:00,
2013-05-23 04:47:00,52.0,51.5,29.81,SSE,157,0.0,-999.0,98,-99.99,,,0.00,Acu-Link.com,2013-05-23 08:47:00,
2013-05-23 05:02:00,52.0,51.5,29.81,ESE,112,0.0,-999.0,98,-99.99,,,0.00,Acu-Link.com,2013-05-23 09:02:00,
2013-05-23 05:17:00,52.0,51.5,29.81,SSE,157,0.0,-999.0,98,-99.99,,,0.00,Acu-Link.com,2013-05-23 09:17:00,
2013-05-23 05:33:00,51.8,51.3,29.82,East,90,0.0,-999.0,98,-99.99,,,0.00,Acu-Link.com,2013-05-23 09:33:00,
2013-05-23 05:48:00,51.6,51.1,29.82,NE,45,0.0,-999.0,98,-99.99,,,0.00,Acu-Link.com,2013-05-23 09:48:00,
2013-05-23 06:03:00,51.6,51.1,29.82,South,180,0.0,-999.0,98,-99.99,,,0.00,Acu-Link.com,2013-05-23 10:03:00,
2013-05-23 06:18:00,51.6,51.1,29.82,NNE,22,0.0,-999.0,98,-99.99,,,0.00,Acu-Link.com,2013-05-23 10:18:00,
2013-05-23 06:33:00,51.6,51.1,29.83,NNW,337,0.0,-999.0,98,-99.99,,,0.00,Acu-Link.com,2013-05-23 10:33:00,
2013-05-23 06:48:00,51.8,51.3,29.83,NE,45,0.0,-999.0,98,-99.99,,,0.00,Acu-Link.com,2013-05-23 10:48:00,
2013-05-23 07:03:00,52.2,51.7,29.83,SSW,202,0.0,-999.0,98,-99.99,,,0.00,Acu-Link.com,2013-05-23 11:03:00,
2013-05-23 07:19:00,52.3,51.8,29.83,West,270,0.0,-999.0,98,-99.99,,,0.00,Acu-Link.com,2013-05-23 11:19:00,
2013-05-23 07:34:00,52.7,52.2,29.83,SE,135,0.0,-999.0,98,-99.99,,,0.00,Acu-Link.com,2013-05-23 11:34:00,
2013-05-23 07:49:00,53.1,52.5,29.83,ENE,67,0.0,-999.0,98,-99.99,,,0.00,Acu-Link.com,2013-05-23 11:49:00,
2013-05-23 08:05:00,53.6,53.0,29.82,SSE,157,0.0,-999.0,98,-99.99,,,0.00,Acu-Link.com,2013-05-23 12:05:00,
2013-05-23 08:20:00,54.3,53.7,29.82,SSW,202,0.0,-999.0,98,-99.99,,,0.00,Acu-Link.com,2013-05-23 12:20:00,
2013-05-23 08:35:00,55.0,54.4,29.82,NNE,22,0.0,-999.0,98,-99.99,,,0.00,Acu-Link.com,2013-05-23 12:35:00,
2013-05-23 08:51:00,55.9,55.3,29.82,ENE,67,0.0,-999.0,98,-99.99,,,0.00,Acu-Link.com,2013-05-23 12:51:00,
2013-05-23 09:06:00,57.0,56.4,29.82,NNE,22,2.7,-999.0,98,-99.99,,,0.00,Acu-Link.com,2013-05-23 13:06:00,
2013-05-23 09:21:00,58.5,57.9,29.81,NNW,337,0.0,-999.0,98,-99.99,,,0.00,Acu-Link.com,2013-05-23 13:21:00,
2013-05-23 09:37:00,60.4,59.8,29.81,NE,45,1.7,-999.0,98,-99.99,,,0.00,Acu-Link.com,2013-05-23 13:37:00,
2013-05-23 09:52:00,63.1,62.5,29.81,NNE,22,2.2,-999.0,98,-99.99,,,0.00,Acu-Link.com,2013-05-23 13:52:00,
2013-05-23 10:07:00,64.6,63.1,29.82,NE,45,1.1,-999.0,95,-99.99,,,0.00,Acu-Link.com,2013-05-23 14:07:00,
2013-05-23 10:22:00,66.0,64.5,29.82,SSE,157,0.0,-999.0,95,-99.99,,,0.00,Acu-Link.com,2013-05-23 14:22:00,
2013-05-23 10:38:00,67.1,65.3,29.80,NE,45,0.0,-999.0,94,-99.99,,,0.00,Acu-Link.com,2013-05-23 14:38:00,
2013-05-23 10:53:00,68.0,65.6,29.80,NNE,22,0.0,-999.0,92,-99.99,,,0.00,Acu-Link.com,2013-05-23 14:53:00,
2013-05-23 11:08:00,69.1,66.4,29.80,East,90,0.0,-999.0,91,-99.99,,,0.00,Acu-Link.com,2013-05-23 15:08:00,
2013-05-23 11:23:00,68.9,65.5,29.79,WNW,292,0.0,-999.0,89,-99.99,,,0.00,Acu-Link.com,2013-05-23 15:23:00,
2013-05-23 11:38:00,69.1,66.0,29.80,NNW,337,3.2,-999.0,90,-99.99,,,0.00,Acu-Link.com,2013-05-23 15:38:00,
2013-05-23 11:54:00,68.0,65.0,29.80,ENE,67,1.7,-999.0,90,-99.99,,,0.00,Acu-Link.com,2013-05-23 15:54:00,
2013-05-23 12:09:00,68.7,65.3,29.79,NE,45,2.2,-999.0,89,-99.99,,,0.00,Acu-Link.com,2013-05-23 16:09:00,
2013-05-23 12:24:00,70.7,66.0,29.79,NE,45,2.7,-999.0,85,-99.99,,,0.00,Acu-Link.com,2013-05-23 16:24:00,
2013-05-23 12:40:00,72.0,67.6,29.77,NE,45,2.7,-999.0,86,-99.99,,,0.00,Acu-Link.com,2013-05-23 16:40:00,
2013-05-23 12:55:00,70.7,66.0,29.78,NW,315,1.7,-999.0,85,-99.99,,,0.00,Acu-Link.com,2013-05-23 16:55:00,
2013-05-23 13:10:00,70.0,66.6,29.77,SSE,157,1.1,-999.0,89,-99.99,,,0.01,Acu-Link.com,2013-05-23 17:10:00,
2013-05-23 13:25:00,70.3,68.2,29.77,WNW,292,1.7,-999.0,93,-99.99,,,0.02,Acu-Link.com,2013-05-23 17:25:00,
2013-05-23 13:41:00,70.5,68.1,29.76,NNE,22,2.7,-999.0,92,-99.99,,,0.02,Acu-Link.com,2013-05-23 17:41:00,
2013-05-23 13:56:00,71.8,69.3,29.76,NW,315,2.7,-999.0,92,-99.99,,,0.02,Acu-Link.com,2013-05-23 17:56:00,
2013-05-23 14:11:00,72.0,68.6,29.75,NNW,337,2.2,-999.0,89,-99.99,,,0.02,Acu-Link.com,2013-05-23 18:11:00,
2013-05-23 14:27:00,72.3,68.5,29.75,WNW,292,3.2,-999.0,88,-99.99,,,0.02,Acu-Link.com,2013-05-23 18:27:00,
2013-05-23 14:42:00,73.0,68.2,29.76,West,270,2.2,-999.0,85,-99.99,,,0.02,Acu-Link.com,2013-05-23 18:42:00,
2013-05-23 14:57:00,72.7,67.2,29.75,NE,45,1.7,-999.0,83,-99.99,,,0.02,Acu-Link.com,2013-05-23 18:57:00,
2013-05-23 15:13:00,72.5,67.0,29.75,East,90,1.7,-999.0,83,-99.99,,,0.02,Acu-Link.com,2013-05-23 19:13:00,
2013-05-23 15:28:00,72.0,66.2,29.76,ENE,67,2.2,-999.0,82,-99.99,,,0.02,Acu-Link.com,2013-05-23 19:28:00,
2013-05-23 15:43:00,70.9,66.2,29.76,West,270,2.2,-999.0,85,-99.99,,,0.02,Acu-Link.com,2013-05-23 19:43:00,
2013-05-23 15:58:00,69.4,66.0,29.77,NNW,337,2.2,-999.0,89,-99.99,,,0.02,Acu-Link.com,2013-05-23 19:58:00,
2013-05-23 16:13:00,69.1,66.4,29.77,NW,315,1.7,-999.0,91,-99.99,,,0.02,Acu-Link.com,2013-05-23 20:13:00,
2013-05-23 16:29:00,68.4,66.0,29.76,NNW,337,2.7,-999.0,92,-99.99,,,0.02,Acu-Link.com,2013-05-23 20:29:00,
2013-05-23 16:44:00,68.0,65.9,29.75,SW,225,2.2,-999.0,93,-99.99,,,0.02,Acu-Link.com,2013-05-23 20:44:00,
2013-05-23 16:59:00,68.2,66.1,29.75,NNE,22,2.7,-999.0,93,-99.99,,,0.02,Acu-Link.com,2013-05-23 20:59:00,
2013-05-23 17:14:00,68.4,66.0,29.75,WNW,292,2.2,-999.0,92,-99.99,,,0.03,Acu-Link.com,2013-05-23 21:14:00,
2013-05-23 17:30:00,69.1,66.7,29.75,South,180,5.8,-999.0,92,-99.99,,,0.03,Acu-Link.com,2013-05-23 21:30:00,
2013-05-23 17:45:00,69.4,66.3,29.75,NNW,337,2.2,-999.0,90,-99.99,,,0.03,Acu-Link.com,2013-05-23 21:45:00,
2013-05-23 18:00:00,68.7,65.6,29.75,East,90,1.7,-999.0,90,-99.99,,,0.03,Acu-Link.com,2013-05-23 22:00:00,
2013-05-23 18:16:00,68.0,65.0,29.75,NE,45,1.7,-999.0,90,-99.99,,,0.03,Acu-Link.com,2013-05-23 22:16:00,
2013-05-23 18:31:00,67.8,64.8,29.75,NNW,337,1.1,-999.0,90,-99.99,,,0.03,Acu-Link.com,2013-05-23 22:31:00,
2013-05-23 18:46:00,67.1,64.7,29.75,ENE,67,0.0,-999.0,92,-99.99,,,0.03,Acu-Link.com,2013-05-23 22:46:00,
2013-05-23 19:02:00,66.9,64.5,29.75,East,90,1.1,-999.0,92,-99.99,,,0.03,Acu-Link.com,2013-05-23 23:02:00,
2013-05-23 19:17:00,66.6,64.5,29.75,SSE,157,0.0,-999.0,93,-99.99,,,0.03,Acu-Link.com,2013-05-23 23:17:00,
2013-05-23 19:33:00,66.2,64.1,29.75,North,0,1.7,-999.0,93,-99.99,,,0.03,Acu-Link.com,2013-05-23 23:33:00,
2013-05-23 19:48:00,66.0,64.2,29.75,South,180,2.7,-999.0,94,-99.99,,,0.03,Acu-Link.com,2013-05-23 23:48:00,
2013-05-23 20:03:00,65.8,64.0,29.74,NNE,22,1.7,-999.0,94,-99.99,,,0.03,Acu-Link.com,2013-05-24 00:03:00,
2013-05-23 20:18:00,65.5,63.7,29.74,ESE,112,2.7,-999.0,94,-99.99,,,0.03,Acu-Link.com,2013-05-24 00:18:00,
2013-05-23 20:34:00,65.8,64.3,29.74,ENE,67,2.7,-999.0,95,-99.99,,,0.03,Acu-Link.com,2013-05-24 00:34:00,
2013-05-23 20:49:00,64.8,63.6,29.74,ENE,67,1.7,-999.0,96,-99.99,,,0.03,Acu-Link.com,2013-05-24 00:49:00,
2013-05-23 21:04:00,64.4,63.2,29.75,NE,45,1.7,-999.0,96,-99.99,,,0.03,Acu-Link.com,2013-05-24 01:04:00,
2013-05-23 21:19:00,64.2,63.3,29.76,NW,315,1.7,-999.0,97,-99.99,,,0.03,Acu-Link.com,2013-05-24 01:19:00,
2013-05-23 21:34:00,64.2,63.3,29.76,ESE,112,0.0,-999.0,97,-99.99,,,0.03,Acu-Link.com,2013-05-24 01:34:00,
2013-05-23 21:50:00,64.0,63.1,29.75,WNW,292,0.0,-999.0,97,-99.99,,,0.03,Acu-Link.com,2013-05-24 01:50:00,
2013-05-23 22:05:00,64.0,63.1,29.76,NNW,337,3.2,-999.0,97,-99.99,,,0.03,Acu-Link.com,2013-05-24 02:05:00,
2013-05-23 22:20:00,64.0,63.1,29.76,NNW,337,2.2,-999.0,97,-99.99,,,0.03,Acu-Link.com,2013-05-24 02:20:00,
2013-05-23 22:35:00,64.2,63.3,29.75,WNW,292,0.0,-999.0,97,-99.99,,,0.03,Acu-Link.com,2013-05-24 02:35:00,
2013-05-23 22:51:00,64.2,63.3,29.74,West,270,0.0,-999.0,97,-99.99,,,0.03,Acu-Link.com,2013-05-24 02:51:00,
2013-05-23 23:06:00,64.2,63.3,29.73,NNE,22,0.0,-999.0,97,-99.99,,,0.03,Acu-Link.com,2013-05-24 03:06:00,
2013-05-23 23:21:00,64.0,63.1,29.73,NE,45,0.0,-999.0,97,-99.99,,,0.03,Acu-Link.com,2013-05-24 03:21:00,
2013-05-23 23:37:00,64.0,63.1,29.72,NW,315,0.0,-999.0,97,-99.99,,,0.03,Acu-Link.com,2013-05-24 03:37:00,
2013-05-23 23:52:00,63.9,63.0,29.71,NE,45,0.0,-999.0,97,-99.99,,,0.03,Acu-Link.com,2013-05-24 03:52:00,